Wacissa, FL (32361)

1:06 PM EST on February 14, 2016 (GMT -0500)
Chaires Elementary WeatherSTEM | | Change Station
CLOSE
Current Station
Personal Weather Station
Location: Tallahassee, FL
Elevation: 89 ft
Nearby Weather Stations

Elev 89 ft 30.44 °N, 84.12 °W | Updated 14 minutes ago

Partly Cloudy
Partly Cloudy
59.7 °F
Feels Like 59.7 °F
N
0.0
Wind Variable Wind from North
Gusts 6.0 mph

Today
High -- | Low -- °F
--% Chance of Precip.
Yesterday
High -- | Low -- °F
Precip. -- in
Pressure 30.28 in
Visibility 10.0 miles
Clouds Mostly Cloudy 25000 ft
Dew Point 29 °F
Humidity 31%
Rainfall 0.00 in
Snow Depth Not available.
7:17 AM 6:23 PM
Waxing Crescent, 44% visible
METAR KTLH 141753Z 15006KT 10SM BKN250 15/M06 A3028 RMK AO2 SLP253 FU S-SW T01501061 10156 20039 58022
Pressure 30.28 in
Visibility 10.0 miles
Clouds Mostly Cloudy 25000 ft
Dew Point 29 °F
Humidity 31%
Rainfall 0.00 in
Snow Depth Not available.
7:17 AM 6:23 PM
Waxing Crescent, 44% visible
METAR KTLH 141753Z 15006KT 10SM BKN250 15/M06 A3028 RMK AO2 SLP253 FU S-SW T01501061 10156 20039 58022

10-Day Weather Forecast

Almanac

Astronomy

Feb. 14, 2016 Rise Set
Actual Time
Civil Twilight
Nautical Twilight
Astronomical Twilight
Moon
Length of Visible Light
Length of Day
Tomorrow will be .
, % of the Moon is Illuminated

Today's Extremes

State Highs State Lows

Community

WunderPhotos

Upload Photos

1,892,866 photos uploaded!

WunderBlog® & News

Nearby

Air Quality

  Air Quality AQ Index Pollutant
Not available.

Snow Depth

Station Depth Elevation

Earthquake Activity

City Distance Mag. Time & Date
Minimum magnitude displayed is 2.5.

Coastal Water Temperatures

Place Temperature

Stations

Nearby Weather Stations

Station Location Temp. Windchill Dew Point Humidity Wind Precip. Elev Updated Type
                   

Watches & Warnings

There are currently no watches in effect.